Strona główna
METAR-TAF:

METAR-TAF

Lotnisko :

Dijon, Francja

Szerokość geograficzna: 47-16N, Długość geograficzna: 005-05E, wysokość: 222 m

Aktualna obserwacja pogody

Raport powstał 21 minut temu, godzina 06:30 UTC
Wiatr 8 kt od południowy zachód, zmienny między południowo-południowy zachód i zachód
Temperatura 7°C
Wilgotność 81%
Ciśnienie 982 hPa
Widzialność 10 km lub więcej
Przerywane chmury na wysokości 2900 ft
Zachmurzenie całkowite na wysokości 12000 ft

METAR: LFSD 130630Z AUTO 23008KT 200V260 9999 BKN029 OVC120 07/04 Q0982

czas: 07:51 (06:51 UTC)


TAF: brakujący

Obserwacja i prognoza pogody dla ponad 4000 lotnisk (raport METAR i TAF).

Dostępne stacje oznaczono żółtymi i czerwonymi punktami na mapie.

Najedź kursorem aby zobaczyć nazwę stacji.

Kliknij aby zobaczyć obserwacje i prognozy pogody.

Aby zmienić mapę: kliknij na zielony przycisk z czarnym krzyżykiem, aby powiększyć; na zielony przycisk z myślnikiem, aby pomniejszyć; na zielone strzałki, aby przejść do map sąsiednich.


METAR-TAF: